Time;durP1;ratioP1;P1;durP2;ratioP2;P2;SDS_P1;SDS_P2;PMS_P1;PMS_P2;Temp;Humidity;BMP_temperature;BMP_pressure;BME280_temperature;BME280_humidity;BME280_pressure;Samples;Min_cycle;Max_cycle;Signal;HPM_P1;HPM_P2
2021/12/18 00:03:04;;;;;;;9.18;4.93;;;;;;;3.70;66.21;99681.69;9647725;30;20074;-80
2021/12/18 00:08:26;;;;;;;10.23;5.80;;;;;;;3.65;66.93;99685.94;9648461;30;20126;-80
2021/12/18 00:13:46;;;;;;;8.90;5.15;;;;;;;3.65;66.51;99685.19;9637207;30;20489;-80
2021/12/18 00:19:08;;;;;;;10.13;5.13;;;;;;;3.65;67.02;99682.44;9648094;30;20074;-80
2021/12/18 00:24:29;;;;;;;7.63;4.60;;;;;;;3.67;67.15;99689.00;9649133;30;20063;-80
2021/12/18 00:29:50;;;;;;;9.60;5.63;;;;;;;3.65;67.41;99677.66;9637513;30;20055;-80
2021/12/18 00:35:11;;;;;;;9.95;5.35;;;;;;;3.62;67.00;99689.72;9639364;30;20055;-80
2021/12/18 00:40:44;;;;;;;8.50;4.95;;;;;;;3.70;67.61;99684.47;9651111;30;20122;-80
2021/12/18 00:46:06;;;;;;;11.10;5.22;;;;;;;3.77;67.31;99683.22;9638134;30;20047;-80
2021/12/18 00:51:27;;;;;;;8.02;4.20;;;;;;;3.90;67.55;99681.44;9648975;30;20055;-80
2021/12/18 00:56:49;;;;;;;8.40;4.63;;;;;;;4.01;67.29;99689.72;9649471;30;20138;-81
2021/12/18 01:02:11;;;;;;;9.68;5.13;;;;;;;3.98;66.85;99693.50;9648516;30;20061;-80
2021/12/18 01:07:32;;;;;;;8.95;4.60;;;;;;;4.01;67.65;99686.97;9647706;30;20114;-80
2021/12/18 01:12:56;;;;;;;7.82;4.07;;;;;;;4.08;67.22;99684.97;9634907;30;20051;-80
2021/12/18 01:23:57;;;;;;;10.98;5.80;;;;;;;4.16;67.40;99686.72;9635042;30;20067;-80
2021/12/18 01:29:19;;;;;;;8.80;5.47;;;;;;;4.25;67.55;99694.00;9645583;30;20055;-80
2021/12/18 01:34:41;;;;;;;10.70;5.55;;;;;;;4.34;67.74;99673.59;9647290;30;20163;-80
2021/12/18 01:40:03;;;;;;;9.52;4.82;;;;;;;4.37;66.89;99678.13;9633795;30;20057;-81
2021/12/18 01:45:35;;;;;;;9.80;4.90;;;;;;;4.32;67.13;99674.88;9687138;30;20057;-80
2021/12/18 01:56:33;;;;;;;9.82;4.80;;;;;;;4.25;67.21;99682.94;9691486;30;20077;-80
2021/12/18 02:01:54;;;;;;;11.65;5.22;;;;;;;4.20;67.52;99675.41;9690889;30;20070;-80
2021/12/18 02:07:15;;;;;;;9.48;5.30;;;;;;;4.21;67.54;99674.88;9688939;30;20116;-80
2021/12/18 02:13:05;;;;;;;9.50;4.22;;;;;;;4.21;67.97;99680.41;9694107;30;20046;-80
2021/12/18 02:23:58;;;;;;;11.27;5.18;;;;;;;3.89;67.61;99671.66;9689608;30;20054;-79
2021/12/18 02:29:20;;;;;;;7.68;4.55;;;;;;;3.76;67.78;99674.16;9694251;30;20046;-79
2021/12/18 02:34:44;;;;;;;7.88;4.45;;;;;;;3.67;68.27;99671.66;9693366;30;20048;-80
2021/12/18 02:45:30;;;;;;;9.90;4.72;;;;;;;3.63;68.30;99669.13;9694779;30;20065;-79
2021/12/18 02:50:51;;;;;;;7.88;3.72;;;;;;;3.72;68.41;99665.38;9700008;30;20050;-79
2021/12/18 02:56:12;;;;;;;8.55;4.07;;;;;;;3.81;68.59;99667.88;9696406;30;20046;-81
2021/12/18 03:01:35;;;;;;;9.25;3.80;;;;;;;3.98;68.16;99671.41;9689889;30;20082;-79
2021/12/18 03:07:00;;;;;;;8.55;3.88;;;;;;;4.08;68.24;99660.84;9690595;30;20113;-80
2021/12/18 03:23:47;;;;;;;10.80;3.90;;;;;;;4.03;68.16;99656.81;9675610;30;20074;-80
2021/12/18 03:29:08;;;;;;;7.80;3.83;;;;;;;3.90;68.20;99642.78;9667240;30;20050;-80
2021/12/18 03:34:29;;;;;;;13.00;4.28;;;;;;;3.79;68.57;99655.84;9672332;30;20058;-80
2021/12/18 03:39:50;;;;;;;9.85;3.72;;;;;;;3.79;68.58;99653.84;9672946;30;20089;-80
2021/12/18 03:45:11;;;;;;;8.50;3.45;;;;;;;3.89;68.03;99663.38;9672541;30;20054;-80
2021/12/18 03:50:32;;;;;;;9.45;3.83;;;;;;;4.04;68.23;99652.03;9671664;30;20130;-80
2021/12/18 03:55:53;;;;;;;8.45;3.83;;;;;;;4.05;68.29;99652.78;9673138;30;20099;-80
2021/12/18 04:01:14;;;;;;;6.22;3.65;;;;;;;4.04;68.00;99654.81;9677717;30;20557;-82
2021/12/18 04:06:39;;;;;;;8.85;3.58;;;;;;;3.97;68.15;99649.81;9686362;30;20518;-80
2021/12/18 04:12:00;;;;;;;7.67;4.20;;;;;;;3.79;68.54;99664.13;9677331;30;20060;-80
2021/12/18 04:17:21;;;;;;;12.38;4.63;;;;;;;3.63;68.30;99649.06;9680096;30;20054;-80
2021/12/18 04:22:43;;;;;;;9.63;4.60;;;;;;;3.44;69.34;99648.78;9687490;30;20063;-82
2021/12/18 04:28:04;;;;;;;10.00;5.10;;;;;;;3.28;68.82;99650.28;9680908;30;20092;-80
2021/12/18 04:33:26;;;;;;;10.60;5.72;;;;;;;3.15;69.04;99647.97;9689970;30;20057;-81
2021/12/18 04:38:48;;;;;;;8.60;4.90;;;;;;;3.09;69.48;99644.47;9691901;30;20054;-80
2021/12/18 04:44:09;;;;;;;10.20;5.53;;;;;;;3.05;69.26;99645.94;9717413;30;20050;-80
2021/12/18 04:49:30;;;;;;;8.15;5.35;;;;;;;3.04;69.42;99649.97;9719754;30;20054;-79
2021/12/18 04:54:51;;;;;;;10.65;5.47;;;;;;;3.01;69.58;99657.25;9710461;30;20458;-80
2021/12/18 05:00:14;;;;;;;9.23;5.78;;;;;;;2.99;69.39;99659.75;9711853;30;20108;-80
2021/12/18 05:05:36;;;;;;;11.70;6.13;;;;;;;2.92;70.06;99662.22;9704867;30;20070;-80
2021/12/18 05:10:56;;;;;;;10.68;5.93;;;;;;;2.89;69.37;99658.44;9699153;30;20037;-80
2021/12/18 05:16:17;;;;;;;12.90;6.82;;;;;;;2.84;69.89;99650.91;9700813;30;20068;-80
2021/12/18 05:21:40;;;;;;;11.13;6.00;;;;;;;2.78;70.12;99652.88;9701235;30;20081;-81
2021/12/18 05:27:01;;;;;;;11.48;6.20;;;;;;;2.70;69.49;99651.84;9701530;30;20539;-80
2021/12/18 05:32:23;;;;;;;11.18;6.05;;;;;;;2.66;70.28;99660.34;9714342;30;20065;-81
2021/12/18 05:37:53;;;;;;;13.35;6.55;;;;;;;2.58;70.73;99660.06;9707709;30;20122;-80
2021/12/18 05:43:14;;;;;;;12.27;6.03;;;;;;;2.58;70.40;99654.56;9687740;30;20519;-79
2021/12/18 05:48:35;;;;;;;10.93;6.50;;;;;;;2.51;70.47;99657.81;9701807;30;20058;-80
2021/12/18 05:53:57;;;;;;;11.75;5.28;;;;;;;2.51;70.12;99663.31;9696693;30;20058;-80
2021/12/18 05:59:18;;;;;;;10.20;5.25;;;;;;;2.50;70.24;99656.25;9704370;30;20050;-79
2021/12/18 06:04:42;;;;;;;11.00;5.72;;;;;;;2.56;70.26;99653.53;9703233;30;20089;-81
2021/12/18 06:10:03;;;;;;;12.18;5.93;;;;;;;2.51;70.43;99663.31;9699942;30;20105;-80
2021/12/18 06:15:24;;;;;;;10.45;5.72;;;;;;;2.53;70.44;99660.06;9685765;30;20050;-80
2021/12/18 06:20:44;;;;;;;8.82;5.53;;;;;;;2.52;70.50;99659.31;9687359;30;20137;-80
2021/12/18 06:26:05;;;;;;;13.75;6.55;;;;;;;2.50;71.06;99664.53;9685296;30;20056;-79
2021/12/18 06:31:27;;;;;;;12.93;6.57;;;;;;;2.49;71.15;99665.78;9674713;30;20046;-81
2021/12/18 06:36:48;;;;;;;11.50;6.68;;;;;;;2.46;70.37;99664.03;9695931;30;20073;-80
2021/12/18 06:42:10;;;;;;;11.43;7.65;;;;;;;2.45;70.58;99670.03;9707331;30;20125;-80
2021/12/18 06:47:31;;;;;;;16.40;10.00;;;;;;;2.47;71.25;99662.78;9701741;30;20090;-81
2021/12/18 06:52:53;;;;;;;11.85;7.82;;;;;;;2.51;70.92;99662.53;9700747;30;20078;-85
2021/12/18 06:58:13;;;;;;;15.48;8.23;;;;;;;2.54;70.96;99656.06;9738626;30;20034;-85
2021/12/18 07:03:36;;;;;;;12.48;7.38;;;;;;;2.59;70.43;99658.06;9737924;30;20045;-80
2021/12/18 07:08:57;;;;;;;12.15;7.15;;;;;;;2.69;70.99;99650.34;9708193;30;20075;-84
2021/12/18 07:14:18;;;;;;;10.20;6.88;;;;;;;2.77;70.65;99641.09;9702347;30;20038;-80
2021/12/18 07:26:14;;;;;;;10.65;6.95;;;;;;;4.36;68.61;99643.47;11838702;24;20055;31
2021/12/18 08:09:46;;;;;;;9.90;7.45;;;;;;;22.56;41.60;99644.66;10191256;24;20060;-87
2021/12/18 08:15:09;;;;;;;7.50;6.70;;;;;;;22.72;41.75;99639.06;9772449;30;20067;-89
2021/12/18 08:20:30;;;;;;;8.00;6.60;;;;;;;23.98;38.21;99641.41;9789781;30;20044;-85
2021/12/18 08:25:52;;;;;;;8.68;6.72;;;;;;;25.71;34.92;99648.56;9777619;30;20408;-87
2021/12/18 08:31:13;;;;;;;6.63;5.95;;;;;;;25.56;34.47;99655.81;9777775;30;20056;-87
2021/12/18 08:36:36;;;;;;;7.85;6.38;;;;;;;27.09;31.18;99653.38;9814121;30;20153;-86
2021/12/18 08:41:59;;;;;;;7.28;5.95;;;;;;;27.04;29.94;99648.94;9825825;30;20511;-87
2021/12/18 08:47:21;;;;;;;6.50;5.43;;;;;;;27.66;27.17;99649.44;9813449;30;20105;-86
2021/12/18 08:52:42;;;;;;;7.18;5.93;;;;;;;28.50;23.94;99648.91;9825335;30;20055;-87
2021/12/18 08:58:03;;;;;;;6.82;5.57;;;;;;;27.84;23.72;99639.91;9812796;30;20052;-87
2021/12/18 09:03:23;;;;;;;6.15;5.55;;;;;;;28.45;21.96;99653.06;9824787;30;20056;-87
2021/12/18 09:08:45;;;;;;;7.07;6.38;;;;;;;29.06;20.78;99640.28;9776558;30;20060;-90
2021/12/18 09:14:06;;;;;;;6.50;5.78;;;;;;;28.25;21.21;99638.88;9788014;30;20087;-89
2021/12/18 09:19:27;;;;;;;7.67;6.30;;;;;;;29.53;19.18;99635.59;9788274;30;20051;-89
2021/12/18 09:24:48;;;;;;;6.85;5.80;;;;;;;30.22;18.85;99630.53;9787805;30;20485;-88
2021/12/18 09:30:11;;;;;;;6.15;5.43;;;;;;;29.96;18.55;99628.56;9799618;30;20080;-88
2021/12/18 09:35:32;;;;;;;6.80;6.18;;;;;;;30.70;17.07;99633.59;9787304;30;20053;-89
2021/12/18 09:40:56;;;;;;;7.03;6.35;;;;;;;29.59;17.59;99619.19;9787121;30;20056;-88
2021/12/18 09:46:18;;;;;;;6.32;5.72;;;;;;;30.61;17.12;99611.78;9770395;30;20087;-87
2021/12/18 09:51:38;;;;;;;8.07;5.87;;;;;;;31.22;15.94;99612.78;9774529;30;20116;-88
2021/12/18 09:56:59;;;;;;;6.43;5.43;;;;;;;29.73;16.61;99613.00;9786602;30;20049;-87
2021/12/18 10:02:20;;;;;;;5.83;5.27;;;;;;;30.27;15.98;99609.75;9786259;30;20507;-88
2021/12/18 10:07:41;;;;;;;6.20;5.60;;;;;;;30.28;15.43;99598.97;9786147;30;20110;-88
2021/12/18 10:13:09;;;;;;;6.80;5.90;;;;;;;28.57;16.68;99601.72;9785730;30;20048;-88
2021/12/18 10:18:32;;;;;;;6.53;5.80;;;;;;;30.08;15.98;99593.56;9785832;30;20110;-88
2021/12/18 10:23:53;;;;;;;6.82;5.75;;;;;;;27.56;16.54;99588.16;9785704;30;20057;-88
2021/12/18 10:29:34;;;;;;;6.32;5.72;;;;;;;26.92;18.76;99591.19;9797723;30;20045;-89
2021/12/18 10:34:56;;;;;;;5.22;4.72;;;;;;;29.12;16.58;99585.78;9785729;30;20060;-89
2021/12/18 10:40:19;;;;;;;5.20;4.70;;;;;;;25.81;17.07;99574.56;9797029;30;20064;-86
2021/12/18 10:45:40;;;;;;;7.38;5.28;;;;;;;21.88;19.81;99565.81;9784999;30;20127;-76
2021/12/18 10:51:01;;;;;;;6.70;6.00;;;;;;;19.62;22.18;99567.31;9785194;30;20059;-82
2021/12/18 10:56:34;;;;;;;6.80;5.47;;;;;;;18.00;24.35;99555.53;9784876;30;20048;-85
2021/12/18 11:01:56;;;;;;;9.57;6.40;;;;;;;17.08;25.50;99550.56;9784923;30;20477;-83
2021/12/18 11:07:33;;;;;;;6.70;5.27;;;;;;;16.33;28.67;99539.50;9781882;30;20516;-86
2021/12/18 11:13:55;;;;;;;7.85;6.40;;;;;;;15.94;27.33;99528.94;9777301;30;20057;-87
2021/12/18 11:18:45;;;;;;;7.22;6.07;;;;;;;15.51;27.80;99524.19;9786788;30;20208;-80
2021/12/18 11:24:06;;;;;;;7.40;5.95;;;;;;;15.13;28.40;99509.41;9775924;30;20056;-78
2021/12/18 11:29:44;;;;;;;9.55;6.28;;;;;;;14.97;30.00;99507.41;9798232;30;20052;-76
2021/12/18 11:35:10;;;;;;;7.38;5.75;;;;;;;14.87;30.10;99496.09;9830487;30;20045;-79
2021/12/18 11:40:36;;;;;;;8.43;5.85;;;;;;;14.33;30.97;99493.94;9781467;30;20057;-79
2021/12/18 11:45:57;;;;;;;7.95;5.70;;;;;;;14.03;32.03;99486.63;9781192;30;20048;-78
2021/12/18 11:51:18;;;;;;;8.70;5.95;;;;;;;13.96;32.27;99481.06;9793775;30;20397;-79
2021/12/18 11:56:47;;;;;;;8.63;6.90;;;;;;;13.86;32.94;99480.97;9812711;30;20076;-77
2021/12/18 12:02:09;;;;;;;9.68;6.85;;;;;;;13.60;34.01;99464.78;9799811;30;20072;-78
2021/12/18 12:07:30;;;;;;;9.02;6.90;;;;;;;13.39;34.44;99468.69;9802549;30;20385;-79
2021/12/18 12:12:54;;;;;;;8.25;6.55;;;;;;;13.32;34.96;99463.16;9802771;30;20417;-79
2021/12/18 12:18:15;;;;;;;6.93;6.03;;;;;;;13.15;35.15;99461.03;9798877;30;20063;-79
2021/12/18 12:23:59;;;;;;;8.40;5.78;;;;;;;12.86;36.45;99453.00;9804874;30;20044;-78
2021/12/18 12:29:21;;;;;;;8.20;5.85;;;;;;;12.60;36.28;99450.72;9806805;30;20458;-80
2021/12/18 12:35:12;;;;;;;8.60;5.55;;;;;;;12.51;36.73;99445.72;9812715;30;20540;-85
2021/12/18 12:40:35;;;;;;;7.63;5.83;;;;;;;12.36;37.58;99434.63;9831839;30;20036;-87
2021/12/18 12:46:00;;;;;;;8.70;5.45;;;;;;;12.20;37.38;99437.47;9829347;30;20310;-85
2021/12/18 12:51:20;;;;;;;8.73;6.00;;;;;;;11.99;38.45;99437.75;9807003;30;20060;-76
2021/12/18 12:56:41;;;;;;;8.00;5.57;;;;;;;11.86;38.57;99429.56;9784960;30;20420;-78
2021/12/18 13:02:05;;;;;;;7.07;5.43;;;;;;;11.60;39.00;99419.53;9798504;30;20080;-79
2021/12/18 13:07:25;;;;;;;8.73;6.00;;;;;;;11.52;39.72;99418.81;9796943;30;20417;-78
2021/12/18 13:12:56;;;;;;;7.18;5.60;;;;;;;11.44;40.79;99416.03;9799057;30;20052;-77
2021/12/18 13:18:18;;;;;;;7.70;5.47;;;;;;;11.21;40.21;99412.50;9798963;30;20056;-78
2021/12/18 13:23:59;;;;;;;8.65;5.70;;;;;;;11.02;40.90;99410.09;9797045;30;20056;-77
2021/12/18 13:29:21;;;;;;;7.35;5.45;;;;;;;10.98;41.16;99412.50;9797711;30;20075;-78
2021/12/18 13:34:42;;;;;;;10.27;5.47;;;;;;;10.89;41.94;99405.41;9783644;30;20056;-80
2021/12/18 13:40:06;;;;;;;9.60;6.03;;;;;;;10.75;41.66;99403.38;9801974;30;20048;-80
2021/12/18 13:45:27;;;;;;;7.80;5.07;;;;;;;10.58;42.17;99390.66;9813569;30;20048;-82
2021/12/18 13:51:18;;;;;;;6.85;4.20;;;;;;;10.32;42.70;99393.78;9804071;30;20045;-81
2021/12/18 13:56:49;;;;;;;6.93;4.70;;;;;;;10.10;42.94;99397.22;9810208;30;20065;-83
2021/12/18 14:02:10;;;;;;;7.10;4.53;;;;;;;10.03;43.53;99395.88;9833868;30;20064;-80
2021/12/18 14:07:31;;;;;;;10.88;5.20;;;;;;;9.84;43.55;99390.59;9824850;30;20116;-84
2021/12/18 14:12:52;;;;;;;7.35;4.97;;;;;;;9.60;44.27;99382.69;9828183;30;20040;-85
2021/12/18 14:18:34;;;;;;;6.78;4.32;;;;;;;9.44;45.32;99374.22;9829395;30;20057;-84
2021/12/18 14:42:56;;;;;;;6.40;4.72;;;;;;;8.44;46.48;99362.84;11159664;24;19935;-86
2021/12/18 14:54:55;;;;;;;7.65;5.22;;;;;;;8.23;47.55;99365.59;11597763;24;20120;-82
2021/12/18 15:00:19;;;;;;;9.93;5.20;;;;;;;8.16;47.98;99361.41;11355024;24;20067;-84
2021/12/18 15:05:56;;;;;;;7.13;5.05;;;;;;;8.11;49.64;99358.78;11769821;24;20038;-80
2021/12/18 15:11:25;;;;;;;6.38;4.85;;;;;;;8.08;49.76;99348.72;9847258;30;20079;-83
2021/12/18 15:17:06;;;;;;;8.13;4.70;;;;;;;8.00;49.53;99359.75;9818655;30;20052;-81
2021/12/18 15:22:28;;;;;;;5.70;3.78;;;;;;;7.88;50.27;99348.13;9858272;30;20048;-82
2021/12/18 15:27:50;;;;;;;6.10;3.92;;;;;;;7.78;50.65;99335.97;9865146;30;20032;-81
2021/12/18 15:33:12;;;;;;;5.28;3.83;;;;;;;7.74;50.52;99333.50;9851575;30;20065;-84
2021/12/18 15:38:37;;;;;;;6.88;4.28;;;;;;;7.71;51.70;99337.34;9878234;30;20032;-83
2021/12/18 15:44:07;;;;;;;8.25;5.55;;;;;;;7.68;51.53;99329.34;9879084;30;20047;-84
2021/12/18 15:49:29;;;;;;;5.93;4.32;;;;;;;7.63;51.92;99310.78;9851187;30;20051;-85
2021/12/18 15:54:50;;;;;;;6.60;4.50;;;;;;;7.59;52.04;99316.66;9853425;30;20044;-83
2021/12/18 16:00:13;;;;;;;6.68;4.57;;;;;;;7.52;52.17;99316.53;9853314;30;20052;-84
2021/12/18 16:05:36;;;;;;;5.78;4.05;;;;;;;7.54;52.87;99314.75;9845789;30;20062;-83
2021/12/18 16:10:57;;;;;;;5.63;3.80;;;;;;;7.51;52.98;99321.34;9877240;30;20096;-83
2021/12/18 16:16:18;;;;;;;5.53;4.00;;;;;;;7.44;53.15;99322.78;9864492;30;20039;-86
2021/12/18 16:21:40;;;;;;;6.30;4.00;;;;;;;7.35;53.99;99320.44;9858272;30;20087;-82
2021/12/18 16:27:01;;;;;;;5.43;3.85;;;;;;;7.21;54.16;99304.28;9864290;30;20067;-85
2021/12/18 16:32:22;;;;;;;5.65;3.80;;;;;;;7.22;54.48;99292.63;9876454;30;20028;-83
2021/12/18 16:37:55;;;;;;;7.43;4.10;;;;;;;7.23;54.15;99293.38;9863013;30;20083;-85
2021/12/18 16:43:16;;;;;;;7.25;4.43;;;;;;;7.14;54.76;99283.44;9866477;30;20036;-82
2021/12/18 17:45:38;;;;;;;9.63;5.95;;;;;;;6.52;57.46;99242.22;11622466;24;20060;-80
2021/12/18 17:51:00;;;;;;;7.50;5.22;;;;;;;6.50;57.31;99239.97;9834405;30;20071;-82
2021/12/18 17:56:23;;;;;;;6.55;4.97;;;;;;;6.43;57.94;99235.06;9843514;30;20121;-82
2021/12/18 18:01:44;;;;;;;7.65;4.90;;;;;;;6.41;58.18;99220.97;9852857;30;20504;-82
2021/12/18 18:07:05;;;;;;;6.53;4.82;;;;;;;6.35;58.55;99217.53;9820216;30;20056;-84
2021/12/18 18:18:28;;;;;;;6.43;4.55;;;;;;;6.38;58.79;99232.41;9808301;30;20069;-85
2021/12/18 18:23:50;;;;;;;7.95;5.45;;;;;;;6.32;58.80;99224.91;9791253;30;20057;-82
2021/12/18 18:29:11;;;;;;;7.32;5.57;;;;;;;6.30;59.26;99213.59;9788760;30;20131;-81
2021/12/18 18:34:32;;;;;;;8.80;5.15;;;;;;;6.34;58.91;99231.94;9780703;30;20059;-81
2021/12/18 18:39:53;;;;;;;7.15;5.45;;;;;;;6.35;59.62;99219.56;9803128;30;20075;-83
2021/12/18 18:45:20;;;;;;;7.50;5.10;;;;;;;6.38;60.00;99230.38;9807377;30;20069;-83
2021/12/18 18:50:41;;;;;;;5.93;4.63;;;;;;;6.37;59.46;99223.34;9800462;30;20480;-81
2021/12/18 18:56:03;;;;;;;8.48;5.40;;;;;;;6.37;59.82;99209.47;9775422;30;20045;-80
2021/12/18 19:01:24;;;;;;;7.13;5.57;;;;;;;6.33;59.43;99214.56;9778657;30;20071;-79
2021/12/18 19:06:45;;;;;;;10.13;6.05;;;;;;;6.30;60.14;99194.19;9829779;30;20088;-82
2021/12/18 19:12:06;;;;;;;10.35;6.35;;;;;;;6.30;59.99;99199.00;9820272;30;20040;-81
2021/12/18 19:17:27;;;;;;;7.97;6.10;;;;;;;6.24;60.28;99187.22;9849219;30;20065;-81
2021/12/18 19:22:49;;;;;;;8.95;5.68;;;;;;;6.20;60.29;99184.03;9820430;30;20053;-80
2021/12/18 19:28:10;;;;;;;8.93;6.00;;;;;;;6.16;60.82;99172.50;9833745;30;20120;-82
2021/12/18 19:33:30;;;;;;;10.60;7.10;;;;;;;6.12;61.47;99163.75;9834002;30;20043;-83
2021/12/18 19:38:51;;;;;;;8.73;6.47;;;;;;;6.14;60.71;99152.88;9822281;30;20093;-82
2021/12/18 19:44:12;;;;;;;7.88;6.05;;;;;;;6.19;61.19;99154.81;9822364;30;20033;-83
2021/12/18 19:49:33;;;;;;;7.63;5.47;;;;;;;6.17;61.45;99140.72;9846279;30;20044;-80
2021/12/18 19:54:54;;;;;;;9.80;6.88;;;;;;;6.16;61.27;99142.75;9803779;30;20048;-79
2021/12/18 20:00:17;;;;;;;9.90;6.05;;;;;;;6.13;61.55;99140.31;9774050;30;20067;-78
2021/12/18 20:05:38;;;;;;;7.88;6.35;;;;;;;6.16;61.86;99133.69;9813197;30;20500;-79
2021/12/18 20:10:59;;;;;;;5.90;4.70;;;;;;;6.20;61.64;99123.03;9816128;30;20116;-81
2021/12/18 20:16:20;;;;;;;7.53;4.53;;;;;;;6.17;62.13;99113.00;9800670;30;20100;-80
2021/12/18 20:21:41;;;;;;;6.68;4.97;;;;;;;6.13;61.85;99107.78;9839666;30;20044;-80
2021/12/18 20:27:02;;;;;;;5.70;4.20;;;;;;;6.19;62.37;99093.81;9839792;30;20109;-81
2021/12/18 20:32:24;;;;;;;5.35;3.72;;;;;;;6.17;62.45;99088.78;9816686;30;20052;-80
2021/12/18 20:37:48;;;;;;;6.30;4.10;;;;;;;6.19;62.49;99077.19;9798262;30;20060;-80
2021/12/18 20:43:09;;;;;;;5.87;3.77;;;;;;;6.17;62.21;99063.09;9805753;30;20032;-82
2021/12/18 20:48:30;;;;;;;4.82;3.33;;;;;;;6.16;62.60;99075.47;9827277;30;20059;-82
2021/12/18 20:53:51;;;;;;;4.15;3.22;;;;;;;6.21;62.88;99063.53;9826885;30;20032;-81
2021/12/18 20:59:12;;;;;;;3.30;2.95;;;;;;;6.19;62.90;99057.78;9823656;30;20085;-80
2021/12/18 21:04:32;;;;;;;6.40;3.88;;;;;;;6.15;63.46;99054.56;9820180;30;20131;-80
2021/12/18 21:09:54;;;;;;;5.07;3.38;;;;;;;6.14;63.13;99044.75;9830682;30;20083;-81
2021/12/18 21:15:15;;;;;;;5.28;3.70;;;;;;;6.13;63.57;99024.59;9811680;30;20429;-79
2021/12/18 21:20:37;;;;;;;4.30;3.05;;;;;;;6.12;63.53;99022.38;9765173;30;20049;-78
2021/12/18 21:25:57;;;;;;;4.28;2.70;;;;;;;6.13;63.60;99015.53;9777064;30;20074;-78
2021/12/18 21:31:18;;;;;;;5.40;2.88;;;;;;;6.15;63.38;99018.53;9784446;30;20052;-78
2021/12/18 21:36:42;;;;;;;4.07;3.28;;;;;;;6.13;63.62;99007.22;9772700;30;20087;-80
2021/12/18 21:42:24;;;;;;;4.30;3.13;;;;;;;6.12;64.12;99011.28;9788924;30;20048;-78
2021/12/18 21:47:45;;;;;;;4.03;2.80;;;;;;;6.14;64.25;99014.25;9790456;30;20120;-80
2021/12/18 21:53:07;;;;;;;4.60;3.10;;;;;;;6.14;64.13;99015.00;9796680;30;20049;-80
2021/12/18 21:58:28;;;;;;;4.72;3.30;;;;;;;6.18;63.97;99009.16;9783312;30;20060;-80
2021/12/18 22:03:49;;;;;;;5.47;2.92;;;;;;;6.19;64.14;99007.88;9803539;30;20432;-80
2021/12/18 22:09:11;;;;;;;4.03;2.45;;;;;;;6.24;64.24;99004.97;9832272;30;20048;-80
2021/12/18 22:14:32;;;;;;;3.70;2.35;;;;;;;6.26;63.95;99021.06;9835328;30;20104;-82
2021/12/18 22:19:53;;;;;;;3.50;2.60;;;;;;;6.27;64.08;99008.69;9806794;30;20059;-82
2021/12/18 22:25:15;;;;;;;4.05;2.85;;;;;;;6.20;64.10;99006.59;9836302;30;20037;-83
2021/12/18 22:30:37;;;;;;;5.03;2.50;;;;;;;6.23;64.00;98999.97;9811406;30;20044;-83
2021/12/18 22:35:58;;;;;;;4.85;3.10;;;;;;;6.28;64.47;98997.09;9822132;30;20039;-84
2021/12/18 22:41:20;;;;;;;4.35;2.30;;;;;;;6.31;64.32;98989.72;9823630;30;20079;-82
2021/12/18 23:05:30;;;;;;;2.33;1.33;;;;;;;6.20;64.52;98962.97;11399239;24;20047;-82
2021/12/18 23:10:52;;;;;;;3.08;1.52;;;;;;;6.21;64.30;98924.91;9859373;30;20040;-81
